sensor_id;sensor_type;location;lat;lon;timestamp;temperature;humidity
33827;DHT22;20128;45.582;5.298;2023-01-24T00:01:00;4.20;76.10
33827;DHT22;20128;45.582;5.298;2023-01-24T00:03:25;4.20;76.20
33827;DHT22;20128;45.582;5.298;2023-01-24T00:05:51;4.10;76.30
33827;DHT22;20128;45.582;5.298;2023-01-24T00:08:18;4.10;76.40
33827;DHT22;20128;45.582;5.298;2023-01-24T00:10:46;4.10;76.50
33827;DHT22;20128;45.582;5.298;2023-01-24T00:13:13;4.20;76.40
33827;DHT22;20128;45.582;5.298;2023-01-24T00:15:39;4.20;76.40
33827;DHT22;20128;45.582;5.298;2023-01-24T00:18:05;4.20;76.30
33827;DHT22;20128;45.582;5.298;2023-01-24T00:20:31;4.20;76.20
33827;DHT22;20128;45.582;5.298;2023-01-24T00:22:56;4.20;76.10
33827;DHT22;20128;45.582;5.298;2023-01-24T00:25:22;4.20;76.30
33827;DHT22;20128;45.582;5.298;2023-01-24T00:27:48;4.10;76.40
33827;DHT22;20128;45.582;5.298;2023-01-24T00:30:14;4.20;76.50
33827;DHT22;20128;45.582;5.298;2023-01-24T00:32:40;4.20;76.60
33827;DHT22;20128;45.582;5.298;2023-01-24T00:35:06;4.20;76.60
33827;DHT22;20128;45.582;5.298;2023-01-24T00:37:32;4.10;76.50
33827;DHT22;20128;45.582;5.298;2023-01-24T00:39:58;4.10;76.60
33827;DHT22;20128;45.582;5.298;2023-01-24T00:42:23;4.10;76.80
33827;DHT22;20128;45.582;5.298;2023-01-24T00:44:49;4.10;76.80
33827;DHT22;20128;45.582;5.298;2023-01-24T00:47:15;4.10;76.80
33827;DHT22;20128;45.582;5.298;2023-01-24T00:49:40;4.20;76.80
33827;DHT22;20128;45.582;5.298;2023-01-24T00:52:06;4.10;76.80
33827;DHT22;20128;45.582;5.298;2023-01-24T00:54:31;4.10;76.70
33827;DHT22;20128;45.582;5.298;2023-01-24T00:56:57;4.10;76.80
33827;DHT22;20128;45.582;5.298;2023-01-24T00:59:23;4.10;77.00
33827;DHT22;20128;45.582;5.298;2023-01-24T01:01:48;4.00;77.10
33827;DHT22;20128;45.582;5.298;2023-01-24T01:04:14;4.10;77.40
33827;DHT22;20128;45.582;5.298;2023-01-24T01:06:39;4.10;77.40
33827;DHT22;20128;45.582;5.298;2023-01-24T01:09:05;4.10;77.40
33827;DHT22;20128;45.582;5.298;2023-01-24T01:11:31;4.10;77.60
33827;DHT22;20128;45.582;5.298;2023-01-24T01:13:57;4.10;77.70
33827;DHT22;20128;45.582;5.298;2023-01-24T01:16:23;4.10;77.80
33827;DHT22;20128;45.582;5.298;2023-01-24T01:18:52;4.10;77.90
33827;DHT22;20128;45.582;5.298;2023-01-24T01:21:20;4.10;77.80
33827;DHT22;20128;45.582;5.298;2023-01-24T01:23:47;4.10;77.90
33827;DHT22;20128;45.582;5.298;2023-01-24T01:26:19;4.10;77.80
33827;DHT22;20128;45.582;5.298;2023-01-24T01:28:45;4.10;77.90
33827;DHT22;20128;45.582;5.298;2023-01-24T01:31:11;4.10;78.00
33827;DHT22;20128;45.582;5.298;2023-01-24T01:33:37;4.10;78.20
33827;DHT22;20128;45.582;5.298;2023-01-24T01:36:03;4.10;78.30
33827;DHT22;20128;45.582;5.298;2023-01-24T01:38:29;4.10;78.20
33827;DHT22;20128;45.582;5.298;2023-01-24T01:40:56;4.10;78.40
33827;DHT22;20128;45.582;5.298;2023-01-24T01:43:23;4.10;78.40
33827;DHT22;20128;45.582;5.298;2023-01-24T01:45:52;4.10;78.40
33827;DHT22;20128;45.582;5.298;2023-01-24T01:48:22;4.00;78.40
33827;DHT22;20128;45.582;5.298;2023-01-24T01:50:54;4.00;78.60
33827;DHT22;20128;45.582;5.298;2023-01-24T01:53:23;4.10;78.80
33827;DHT22;20128;45.582;5.298;2023-01-24T01:55:57;4.10;78.80
33827;DHT22;20128;45.582;5.298;2023-01-24T01:58:24;4.10;78.80
33827;DHT22;20128;45.582;5.298;2023-01-24T02:00:51;4.10;78.80
33827;DHT22;20128;45.582;5.298;2023-01-24T02:03:21;4.10;78.80
33827;DHT22;20128;45.582;5.298;2023-01-24T02:06:34;4.10;79.00
33827;DHT22;20128;45.582;5.298;2023-01-24T02:09:04;4.10;78.80
33827;DHT22;20128;45.582;5.298;2023-01-24T02:11:29;4.10;79.00
33827;DHT22;20128;45.582;5.298;2023-01-24T02:14:10;4.10;79.00
33827;DHT22;20128;45.582;5.298;2023-01-24T02:16:55;4.00;79.10
33827;DHT22;20128;45.582;5.298;2023-01-24T02:22:19;4.10;79.30
33827;DHT22;20128;45.582;5.298;2023-01-24T02:25:01;4.10;79.30
33827;DHT22;20128;45.582;5.298;2023-01-24T02:27:30;4.10;79.40
33827;DHT22;20128;45.582;5.298;2023-01-24T02:29:56;4.10;79.40
33827;DHT22;20128;45.582;5.298;2023-01-24T02:32:22;4.10;79.50
33827;DHT22;20128;45.582;5.298;2023-01-24T02:34:48;4.10;79.50
33827;DHT22;20128;45.582;5.298;2023-01-24T02:37:14;4.10;79.40
33827;DHT22;20128;45.582;5.298;2023-01-24T02:42:14;4.10;79.40
33827;DHT22;20128;45.582;5.298;2023-01-24T02:47:08;4.10;79.40
33827;DHT22;20128;45.582;5.298;2023-01-24T02:49:34;4.10;79.50
33827;DHT22;20128;45.582;5.298;2023-01-24T02:52:00;4.10;79.60
33827;DHT22;20128;45.582;5.298;2023-01-24T02:54:44;4.10;79.70
33827;DHT22;20128;45.582;5.298;2023-01-24T02:57:09;4.10;79.60
33827;DHT22;20128;45.582;5.298;2023-01-24T02:59:54;4.10;79.60
33827;DHT22;20128;45.582;5.298;2023-01-24T03:02:19;4.10;79.60
33827;DHT22;20128;45.582;5.298;2023-01-24T03:04:45;4.10;79.60
33827;DHT22;20128;45.582;5.298;2023-01-24T03:07:10;4.10;79.70
33827;DHT22;20128;45.582;5.298;2023-01-24T03:09:36;4.10;79.70
33827;DHT22;20128;45.582;5.298;2023-01-24T03:12:06;4.10;79.70
33827;DHT22;20128;45.582;5.298;2023-01-24T03:14:50;4.10;79.70
33827;DHT22;20128;45.582;5.298;2023-01-24T03:17:34;4.10;79.50
33827;DHT22;20128;45.582;5.298;2023-01-24T03:20:19;4.10;79.50
33827;DHT22;20128;45.582;5.298;2023-01-24T03:23:03;4.10;79.40
33827;DHT22;20128;45.582;5.298;2023-01-24T03:25:47;4.00;79.50
33827;DHT22;20128;45.582;5.298;2023-01-24T03:28:31;4.00;79.50
33827;DHT22;20128;45.582;5.298;2023-01-24T03:31:16;4.10;79.50
33827;DHT22;20128;45.582;5.298;2023-01-24T03:34:00;4.00;79.50
33827;DHT22;20128;45.582;5.298;2023-01-24T03:36:44;4.00;79.50
33827;DHT22;20128;45.582;5.298;2023-01-24T03:39:11;4.00;79.60
33827;DHT22;20128;45.582;5.298;2023-01-24T03:41:55;4.00;79.70
33827;DHT22;20128;45.582;5.298;2023-01-24T03:44:20;4.00;79.80
33827;DHT22;20128;45.582;5.298;2023-01-24T03:46:46;4.00;79.70
33827;DHT22;20128;45.582;5.298;2023-01-24T03:49:13;4.00;79.90
33827;DHT22;20128;45.582;5.298;2023-01-24T03:51:38;4.00;80.00
33827;DHT22;20128;45.582;5.298;2023-01-24T03:54:23;4.00;80.00
33827;DHT22;20128;45.582;5.298;2023-01-24T03:56:49;4.00;80.00
33827;DHT22;20128;45.582;5.298;2023-01-24T03:59:14;4.00;80.10
33827;DHT22;20128;45.582;5.298;2023-01-24T04:01:40;4.00;80.20
33827;DHT22;20128;45.582;5.298;2023-01-24T04:04:05;4.00;80.00
33827;DHT22;20128;45.582;5.298;2023-01-24T04:06:31;4.00;80.10
33827;DHT22;20128;45.582;5.298;2023-01-24T04:08:57;4.00;80.20
33827;DHT22;20128;45.582;5.298;2023-01-24T04:11:22;4.00;80.20
33827;DHT22;20128;45.582;5.298;2023-01-24T04:13:48;4.00;80.10
33827;DHT22;20128;45.582;5.298;2023-01-24T04:16:14;4.00;80.10
33827;DHT22;20128;45.582;5.298;2023-01-24T04:18:40;4.00;80.30
33827;DHT22;20128;45.582;5.298;2023-01-24T04:21:06;4.00;80.20
33827;DHT22;20128;45.582;5.298;2023-01-24T04:23:32;4.00;80.20
33827;DHT22;20128;45.582;5.298;2023-01-24T04:25:57;4.00;80.30
33827;DHT22;20128;45.582;5.298;2023-01-24T04:28:26;3.90;80.40
33827;DHT22;20128;45.582;5.298;2023-01-24T04:30:58;4.00;80.50
33827;DHT22;20128;45.582;5.298;2023-01-24T04:33:25;4.00;80.60
33827;DHT22;20128;45.582;5.298;2023-01-24T04:35:51;4.00;80.60
33827;DHT22;20128;45.582;5.298;2023-01-24T04:38:17;4.00;80.60
33827;DHT22;20128;45.582;5.298;2023-01-24T04:40:42;4.00;80.60
33827;DHT22;20128;45.582;5.298;2023-01-24T04:43:08;4.00;80.60
33827;DHT22;20128;45.582;5.298;2023-01-24T04:45:34;3.90;80.60
33827;DHT22;20128;45.582;5.298;2023-01-24T04:47:59;4.00;80.80
33827;DHT22;20128;45.582;5.298;2023-01-24T04:50:25;4.00;80.80
33827;DHT22;20128;45.582;5.298;2023-01-24T04:52:51;4.00;80.80
33827;DHT22;20128;45.582;5.298;2023-01-24T04:55:16;4.00;80.70
33827;DHT22;20128;45.582;5.298;2023-01-24T04:57:42;4.00;80.80
33827;DHT22;20128;45.582;5.298;2023-01-24T05:00:09;4.00;80.90
33827;DHT22;20128;45.582;5.298;2023-01-24T05:02:35;4.00;80.90
33827;DHT22;20128;45.582;5.298;2023-01-24T05:05:03;4.00;80.80
33827;DHT22;20128;45.582;5.298;2023-01-24T05:07:29;4.00;80.80
33827;DHT22;20128;45.582;5.298;2023-01-24T05:09:54;4.00;80.90
33827;DHT22;20128;45.582;5.298;2023-01-24T05:12:20;4.00;81.00
33827;DHT22;20128;45.582;5.298;2023-01-24T05:14:46;4.00;81.00
33827;DHT22;20128;45.582;5.298;2023-01-24T05:17:11;4.00;81.00
33827;DHT22;20128;45.582;5.298;2023-01-24T05:19:37;4.00;81.00
33827;DHT22;20128;45.582;5.298;2023-01-24T05:22:02;4.00;81.00
33827;DHT22;20128;45.582;5.298;2023-01-24T05:24:28;4.00;80.90
33827;DHT22;20128;45.582;5.298;2023-01-24T05:26:54;4.00;81.00
33827;DHT22;20128;45.582;5.298;2023-01-24T05:29:20;4.00;81.00
33827;DHT22;20128;45.582;5.298;2023-01-24T05:31:45;4.00;81.00
33827;DHT22;20128;45.582;5.298;2023-01-24T05:34:11;4.00;81.00
33827;DHT22;20128;45.582;5.298;2023-01-24T05:36:37;4.00;81.10
33827;DHT22;20128;45.582;5.298;2023-01-24T05:39:02;3.90;81.00
33827;DHT22;20128;45.582;5.298;2023-01-24T05:41:28;3.90;81.00
33827;DHT22;20128;45.582;5.298;2023-01-24T05:43:54;3.90;81.10
33827;DHT22;20128;45.582;5.298;2023-01-24T05:46:21;3.90;81.10
33827;DHT22;20128;45.582;5.298;2023-01-24T05:48:47;3.90;81.30
33827;DHT22;20128;45.582;5.298;2023-01-24T05:51:16;3.90;81.40
33827;DHT22;20128;45.582;5.298;2023-01-24T05:53:43;3.90;81.40
33827;DHT22;20128;45.582;5.298;2023-01-24T05:56:17;3.90;81.30
33827;DHT22;20128;45.582;5.298;2023-01-24T05:58:45;3.90;81.40
33827;DHT22;20128;45.582;5.298;2023-01-24T06:01:19;3.90;81.30
33827;DHT22;20128;45.582;5.298;2023-01-24T06:03:48;3.90;81.40
33827;DHT22;20128;45.582;5.298;2023-01-24T06:06:15;3.80;81.30
33827;DHT22;20128;45.582;5.298;2023-01-24T06:08:42;3.80;81.60
33827;DHT22;20128;45.582;5.298;2023-01-24T06:11:11;3.80;81.90
33827;DHT22;20128;45.582;5.298;2023-01-24T06:13:38;3.80;82.00
33827;DHT22;20128;45.582;5.298;2023-01-24T06:16:10;3.80;82.00
33827;DHT22;20128;45.582;5.298;2023-01-24T06:18:36;3.80;82.00
33827;DHT22;20128;45.582;5.298;2023-01-24T06:21:08;3.90;82.10
33827;DHT22;20128;45.582;5.298;2023-01-24T06:23:37;3.90;82.10
33827;DHT22;20128;45.582;5.298;2023-01-24T06:26:03;3.90;82.10
33827;DHT22;20128;45.582;5.298;2023-01-24T06:28:29;3.90;82.00
33827;DHT22;20128;45.582;5.298;2023-01-24T06:31:04;3.90;82.10
33827;DHT22;20128;45.582;5.298;2023-01-24T06:33:39;4.00;82.10
33827;DHT22;20128;45.582;5.298;2023-01-24T06:38:51;4.00;82.00
33827;DHT22;20128;45.582;5.298;2023-01-24T06:41:17;4.00;81.90
33827;DHT22;20128;45.582;5.298;2023-01-24T06:43:43;4.00;81.90
33827;DHT22;20128;45.582;5.298;2023-01-24T06:46:11;4.00;82.00
33827;DHT22;20128;45.582;5.298;2023-01-24T06:48:37;4.00;81.90
33827;DHT22;20128;45.582;5.298;2023-01-24T06:51:03;4.00;81.90
33827;DHT22;20128;45.582;5.298;2023-01-24T06:53:29;4.00;81.90
33827;DHT22;20128;45.582;5.298;2023-01-24T06:55:56;4.00;82.10
33827;DHT22;20128;45.582;5.298;2023-01-24T06:58:22;4.00;82.10
33827;DHT22;20128;45.582;5.298;2023-01-24T07:00:48;4.00;82.20
33827;DHT22;20128;45.582;5.298;2023-01-24T07:03:13;4.10;82.10
33827;DHT22;20128;45.582;5.298;2023-01-24T07:05:39;4.10;82.00
33827;DHT22;20128;45.582;5.298;2023-01-24T07:08:05;4.10;82.00
33827;DHT22;20128;45.582;5.298;2023-01-24T07:10:31;4.10;82.00
33827;DHT22;20128;45.582;5.298;2023-01-24T07:12:57;4.10;81.90
33827;DHT22;20128;45.582;5.298;2023-01-24T07:15:24;4.10;82.00
33827;DHT22;20128;45.582;5.298;2023-01-24T07:17:50;4.10;82.00
33827;DHT22;20128;45.582;5.298;2023-01-24T07:20:16;4.10;82.00
33827;DHT22;20128;45.582;5.298;2023-01-24T07:22:42;4.10;82.10
33827;DHT22;20128;45.582;5.298;2023-01-24T07:25:16;4.10;82.10
33827;DHT22;20128;45.582;5.298;2023-01-24T07:27:43;4.10;82.10
33827;DHT22;20128;45.582;5.298;2023-01-24T07:30:10;4.00;82.20
33827;DHT22;20128;45.582;5.298;2023-01-24T07:32:36;4.10;82.40
33827;DHT22;20128;45.582;5.298;2023-01-24T07:35:02;4.00;82.30
33827;DHT22;20128;45.582;5.298;2023-01-24T07:37:29;4.10;82.40
33827;DHT22;20128;45.582;5.298;2023-01-24T07:39:55;4.00;82.30
33827;DHT22;20128;45.582;5.298;2023-01-24T07:42:20;4.10;82.50
33827;DHT22;20128;45.582;5.298;2023-01-24T07:44:46;4.10;82.60
33827;DHT22;20128;45.582;5.298;2023-01-24T07:47:11;4.10;82.40
33827;DHT22;20128;45.582;5.298;2023-01-24T07:49:37;4.10;82.40
33827;DHT22;20128;45.582;5.298;2023-01-24T07:52:03;4.10;82.50
33827;DHT22;20128;45.582;5.298;2023-01-24T07:54:28;4.10;82.60
33827;DHT22;20128;45.582;5.298;2023-01-24T07:56:54;4.20;82.60
33827;DHT22;20128;45.582;5.298;2023-01-24T07:59:20;4.20;82.60
33827;DHT22;20128;45.582;5.298;2023-01-24T08:01:45;4.20;82.60
33827;DHT22;20128;45.582;5.298;2023-01-24T08:04:11;4.20;82.70
33827;DHT22;20128;45.582;5.298;2023-01-24T08:06:38;4.20;82.70
33827;DHT22;20128;45.582;5.298;2023-01-24T08:09:24;4.20;82.60
33827;DHT22;20128;45.582;5.298;2023-01-24T08:11:50;4.20;82.50
33827;DHT22;20128;45.582;5.298;2023-01-24T08:14:15;4.20;82.40
33827;DHT22;20128;45.582;5.298;2023-01-24T08:16:41;4.20;83.10
33827;DHT22;20128;45.582;5.298;2023-01-24T08:19:07;4.20;82.50
33827;DHT22;20128;45.582;5.298;2023-01-24T08:21:32;4.20;82.50
33827;DHT22;20128;45.582;5.298;2023-01-24T08:23:58;4.30;82.50
33827;DHT22;20128;45.582;5.298;2023-01-24T08:26:23;4.30;82.50
33827;DHT22;20128;45.582;5.298;2023-01-24T08:28:49;4.30;82.50
33827;DHT22;20128;45.582;5.298;2023-01-24T08:31:15;4.30;82.60
33827;DHT22;20128;45.582;5.298;2023-01-24T08:33:40;4.30;82.60
33827;DHT22;20128;45.582;5.298;2023-01-24T08:36:06;4.40;82.70
33827;DHT22;20128;45.582;5.298;2023-01-24T08:38:32;4.40;82.70
33827;DHT22;20128;45.582;5.298;2023-01-24T08:40:57;4.40;82.70
33827;DHT22;20128;45.582;5.298;2023-01-24T08:43:23;4.40;82.70
33827;DHT22;20128;45.582;5.298;2023-01-24T08:45:53;4.50;82.90
33827;DHT22;20128;45.582;5.298;2023-01-24T08:48:20;4.50;82.80
33827;DHT22;20128;45.582;5.298;2023-01-24T08:50:46;4.50;82.80
33827;DHT22;20128;45.582;5.298;2023-01-24T08:53:11;4.50;82.70
33827;DHT22;20128;45.582;5.298;2023-01-24T08:55:37;4.50;82.70
33827;DHT22;20128;45.582;5.298;2023-01-24T08:58:03;4.50;82.70
33827;DHT22;20128;45.582;5.298;2023-01-24T09:00:30;4.40;82.60
33827;DHT22;20128;45.582;5.298;2023-01-24T09:02:56;4.40;82.60
33827;DHT22;20128;45.582;5.298;2023-01-24T09:05:27;4.40;82.80
33827;DHT22;20128;45.582;5.298;2023-01-24T09:07:52;4.40;82.90
33827;DHT22;20128;45.582;5.298;2023-01-24T09:10:18;4.40;82.80
33827;DHT22;20128;45.582;5.298;2023-01-24T09:12:44;4.40;82.80
33827;DHT22;20128;45.582;5.298;2023-01-24T09:15:10;4.40;82.90
33827;DHT22;20128;45.582;5.298;2023-01-24T09:17:37;4.50;83.10
33827;DHT22;20128;45.582;5.298;2023-01-24T09:20:03;4.50;83.10
33827;DHT22;20128;45.582;5.298;2023-01-24T09:22:30;4.60;83.20
33827;DHT22;20128;45.582;5.298;2023-01-24T09:24:56;4.70;83.10
33827;DHT22;20128;45.582;5.298;2023-01-24T09:27:21;4.70;82.20
33827;DHT22;20128;45.582;5.298;2023-01-24T09:29:47;4.80;82.60
33827;DHT22;20128;45.582;5.298;2023-01-24T09:32:13;4.90;82.40
33827;DHT22;20128;45.582;5.298;2023-01-24T09:34:38;5.00;81.60
33827;DHT22;20128;45.582;5.298;2023-01-24T09:37:11;5.20;81.50
33827;DHT22;20128;45.582;5.298;2023-01-24T09:39:36;5.30;81.20
33827;DHT22;20128;45.582;5.298;2023-01-24T09:50:02;6.00;78.70
33827;DHT22;20128;45.582;5.298;2023-01-24T09:52:34;6.20;76.10
33827;DHT22;20128;45.582;5.298;2023-01-24T09:58:06;6.50;74.50
33827;DHT22;20128;45.582;5.298;2023-01-24T10:00:38;6.70;74.80
33827;DHT22;20128;45.582;5.298;2023-01-24T10:03:20;6.90;73.30
33827;DHT22;20128;45.582;5.298;2023-01-24T10:05:55;7.00;72.20
33827;DHT22;20128;45.582;5.298;2023-01-24T10:22:24;7.80;69.70
33827;DHT22;20128;45.582;5.298;2023-01-24T10:25:01;7.90;68.60
33827;DHT22;20128;45.582;5.298;2023-01-24T10:27:32;7.80;68.80
33827;DHT22;20128;45.582;5.298;2023-01-24T10:30:12;7.70;68.60
33827;DHT22;20128;45.582;5.298;2023-01-24T10:32:39;7.60;69.40
33827;DHT22;20128;45.582;5.298;2023-01-24T10:35:14;7.40;69.50
33827;DHT22;20128;45.582;5.298;2023-01-24T10:37:44;7.20;70.10
33827;DHT22;20128;45.582;5.298;2023-01-24T10:40:12;7.10;70.40
33827;DHT22;20128;45.582;5.298;2023-01-24T10:42:38;7.00;70.80
33827;DHT22;20128;45.582;5.298;2023-01-24T10:47:58;6.90;71.10
33827;DHT22;20128;45.582;5.298;2023-01-24T10:50:35;6.70;71.30
33827;DHT22;20128;45.582;5.298;2023-01-24T10:53:13;6.70;71.90
33827;DHT22;20128;45.582;5.298;2023-01-24T10:55:39;6.60;72.20
33827;DHT22;20128;45.582;5.298;2023-01-24T10:58:23;6.60;72.40
33827;DHT22;20128;45.582;5.298;2023-01-24T11:01:04;6.50;72.40
33827;DHT22;20128;45.582;5.298;2023-01-24T11:03:31;6.60;72.30
33827;DHT22;20128;45.582;5.298;2023-01-24T11:06:01;6.60;71.80
33827;DHT22;20128;45.582;5.298;2023-01-24T11:08:33;6.50;71.80
33827;DHT22;20128;45.582;5.298;2023-01-24T11:11:00;6.50;72.30
33827;DHT22;20128;45.582;5.298;2023-01-24T11:15:54;6.50;71.40
33827;DHT22;20128;45.582;5.298;2023-01-24T11:18:24;6.50;71.90
33827;DHT22;20128;45.582;5.298;2023-01-24T11:21:14;6.60;72.00
33827;DHT22;20128;45.582;5.298;2023-01-24T11:23:41;6.70;71.90
33827;DHT22;20128;45.582;5.298;2023-01-24T11:26:23;6.70;71.90
33827;DHT22;20128;45.582;5.298;2023-01-24T11:29:04;6.70;71.10
33827;DHT22;20128;45.582;5.298;2023-01-24T11:31:37;6.70;71.60
33827;DHT22;20128;45.582;5.298;2023-01-24T11:48:08;6.60;71.90
33827;DHT22;20128;45.582;5.298;2023-01-24T11:56:13;6.70;71.40
33827;DHT22;20128;45.582;5.298;2023-01-24T12:01:32;6.70;71.30
33827;DHT22;20128;45.582;5.298;2023-01-24T12:12:39;6.70;72.30
33827;DHT22;20128;45.582;5.298;2023-01-24T12:23:24;6.60;72.40
33827;DHT22;20128;45.582;5.298;2023-01-24T12:26:00;6.60;72.60
33827;DHT22;20128;45.582;5.298;2023-01-24T12:28:33;6.60;73.30
33827;DHT22;20128;45.582;5.298;2023-01-24T12:31:02;6.60;72.60
33827;DHT22;20128;45.582;5.298;2023-01-24T12:38:58;6.60;71.90
33827;DHT22;20128;45.582;5.298;2023-01-24T12:41:33;6.70;71.70
33827;DHT22;20128;45.582;5.298;2023-01-24T12:49:29;6.70;71.90
33827;DHT22;20128;45.582;5.298;2023-01-24T12:55:04;6.80;71.80
33827;DHT22;20128;45.582;5.298;2023-01-24T13:00:21;6.80;71.60
33827;DHT22;20128;45.582;5.298;2023-01-24T13:11:24;6.70;71.80
33827;DHT22;20128;45.582;5.298;2023-01-24T13:22:41;6.70;71.40
33827;DHT22;20128;45.582;5.298;2023-01-24T13:27:45;6.80;71.70
33827;DHT22;20128;45.582;5.298;2023-01-24T13:33:02;6.90;71.40
33827;DHT22;20128;45.582;5.298;2023-01-24T13:35:29;6.90;71.40
33827;DHT22;20128;45.582;5.298;2023-01-24T13:38:03;6.90;71.40
33827;DHT22;20128;45.582;5.298;2023-01-24T13:40:31;7.00;71.70
33827;DHT22;20128;45.582;5.298;2023-01-24T13:43:54;7.00;71.00
33827;DHT22;20128;45.582;5.298;2023-01-24T13:45:50;7.00;71.40
33827;DHT22;20128;45.582;5.298;2023-01-24T13:54:00;7.00;71.80
33827;DHT22;20128;45.582;5.298;2023-01-24T13:56:26;7.00;71.80
33827;DHT22;20128;45.582;5.298;2023-01-24T13:58:53;7.00;71.60
33827;DHT22;20128;45.582;5.298;2023-01-24T14:01:20;7.10;71.50
33827;DHT22;20128;45.582;5.298;2023-01-24T14:03:59;7.10;71.40
33827;DHT22;20128;45.582;5.298;2023-01-24T14:06:25;7.10;71.40
33827;DHT22;20128;45.582;5.298;2023-01-24T14:09:00;7.10;71.60
33827;DHT22;20128;45.582;5.298;2023-01-24T14:11:34;7.10;71.50
33827;DHT22;20128;45.582;5.298;2023-01-24T14:14:24;7.10;71.00
33827;DHT22;20128;45.582;5.298;2023-01-24T14:19:31;7.10;71.30
33827;DHT22;20128;45.582;5.298;2023-01-24T14:22:06;7.20;71.40
33827;DHT22;20128;45.582;5.298;2023-01-24T14:24:56;7.20;71.40
33827;DHT22;20128;45.582;5.298;2023-01-24T14:30:15;7.20;69.60
33827;DHT22;20128;45.582;5.298;2023-01-24T14:32:51;7.10;69.50
33827;DHT22;20128;45.582;5.298;2023-01-24T14:37:47;7.00;70.30
33827;DHT22;20128;45.582;5.298;2023-01-24T14:40:26;6.90;70.30
33827;DHT22;20128;45.582;5.298;2023-01-24T14:43:02;6.90;70.80
33827;DHT22;20128;45.582;5.298;2023-01-24T14:45:31;6.90;71.10
33827;DHT22;20128;45.582;5.298;2023-01-24T14:47:58;6.90;71.10
33827;DHT22;20128;45.582;5.298;2023-01-24T14:50:30;6.90;70.80
33827;DHT22;20128;45.582;5.298;2023-01-24T14:55:50;6.90;71.20
33827;DHT22;20128;45.582;5.298;2023-01-24T14:58:28;6.80;71.40
33827;DHT22;20128;45.582;5.298;2023-01-24T15:00:59;6.80;71.80
33827;DHT22;20128;45.582;5.298;2023-01-24T15:03:28;6.80;71.90
33827;DHT22;20128;45.582;5.298;2023-01-24T15:05:55;6.90;72.20
33827;DHT22;20128;45.582;5.298;2023-01-24T15:08:21;6.80;72.00
33827;DHT22;20128;45.582;5.298;2023-01-24T15:10:59;6.80;72.00
33827;DHT22;20128;45.582;5.298;2023-01-24T15:13:30;6.90;72.10
33827;DHT22;20128;45.582;5.298;2023-01-24T15:15:57;6.90;72.20
33827;DHT22;20128;45.582;5.298;2023-01-24T15:18:45;6.80;72.30
33827;DHT22;20128;45.582;5.298;2023-01-24T15:21:18;6.80;72.60
33827;DHT22;20128;45.582;5.298;2023-01-24T15:23:49;6.80;72.50
33827;DHT22;20128;45.582;5.298;2023-01-24T15:26:35;6.80;72.60
33827;DHT22;20128;45.582;5.298;2023-01-24T15:35:13;6.80;72.90
33827;DHT22;20128;45.582;5.298;2023-01-24T15:37:39;6.70;73.00
33827;DHT22;20128;45.582;5.298;2023-01-24T15:40:12;6.70;73.00
33827;DHT22;20128;45.582;5.298;2023-01-24T15:42:38;6.70;73.00
33827;DHT22;20128;45.582;5.298;2023-01-24T15:45:26;6.70;73.20
33827;DHT22;20128;45.582;5.298;2023-01-24T15:48:22;6.70;73.30
33827;DHT22;20128;45.582;5.298;2023-01-24T15:50:54;6.80;73.30
33827;DHT22;20128;45.582;5.298;2023-01-24T15:53:43;6.80;73.30
33827;DHT22;20128;45.582;5.298;2023-01-24T15:56:21;6.80;73.30
33827;DHT22;20128;45.582;5.298;2023-01-24T15:58:48;6.90;73.40
33827;DHT22;20128;45.582;5.298;2023-01-24T16:01:15;6.90;73.40
33827;DHT22;20128;45.582;5.298;2023-01-24T16:03:40;6.90;73.40
33827;DHT22;20128;45.582;5.298;2023-01-24T16:06:06;7.00;73.40
33827;DHT22;20128;45.582;5.298;2023-01-24T16:08:32;7.00;73.20
33827;DHT22;20128;45.582;5.298;2023-01-24T16:10:57;6.90;73.10
33827;DHT22;20128;45.582;5.298;2023-01-24T16:13:30;6.90;73.30
33827;DHT22;20128;45.582;5.298;2023-01-24T16:16:01;6.90;73.30
33827;DHT22;20128;45.582;5.298;2023-01-24T16:18:29;6.90;73.30
33827;DHT22;20128;45.582;5.298;2023-01-24T16:20:54;6.90;73.40
33827;DHT22;20128;45.582;5.298;2023-01-24T16:23:20;6.90;73.50
33827;DHT22;20128;45.582;5.298;2023-01-24T16:25:48;6.90;73.40
33827;DHT22;20128;45.582;5.298;2023-01-24T16:28:23;6.90;73.50
33827;DHT22;20128;45.582;5.298;2023-01-24T16:30:49;6.90;73.50
33827;DHT22;20128;45.582;5.298;2023-01-24T16:33:19;7.00;73.50
33827;DHT22;20128;45.582;5.298;2023-01-24T16:35:46;7.00;73.50
33827;DHT22;20128;45.582;5.298;2023-01-24T16:38:13;7.00;73.40
33827;DHT22;20128;45.582;5.298;2023-01-24T16:40:40;7.00;73.40
33827;DHT22;20128;45.582;5.298;2023-01-24T16:43:07;7.10;73.40
33827;DHT22;20128;45.582;5.298;2023-01-24T16:45:35;7.10;73.30
33827;DHT22;20128;45.582;5.298;2023-01-24T16:48:00;7.10;73.30
33827;DHT22;20128;45.582;5.298;2023-01-24T16:50:27;7.10;73.40
33827;DHT22;20128;45.582;5.298;2023-01-24T16:52:53;7.10;73.50
33827;DHT22;20128;45.582;5.298;2023-01-24T16:55:19;7.10;73.50
33827;DHT22;20128;45.582;5.298;2023-01-24T16:57:45;7.10;73.60
33827;DHT22;20128;45.582;5.298;2023-01-24T17:00:11;7.10;73.60
33827;DHT22;20128;45.582;5.298;2023-01-24T17:02:44;7.10;73.60
33827;DHT22;20128;45.582;5.298;2023-01-24T17:05:13;7.10;73.50
33827;DHT22;20128;45.582;5.298;2023-01-24T17:07:39;7.10;73.60
33827;DHT22;20128;45.582;5.298;2023-01-24T17:10:06;7.10;73.60
33827;DHT22;20128;45.582;5.298;2023-01-24T17:12:31;7.10;73.60
33827;DHT22;20128;45.582;5.298;2023-01-24T17:14:57;7.10;73.60
33827;DHT22;20128;45.582;5.298;2023-01-24T17:17:23;7.10;73.50
33827;DHT22;20128;45.582;5.298;2023-01-24T17:19:50;7.10;73.50
33827;DHT22;20128;45.582;5.298;2023-01-24T17:22:16;7.10;73.50
33827;DHT22;20128;45.582;5.298;2023-01-24T17:24:42;7.10;73.40
33827;DHT22;20128;45.582;5.298;2023-01-24T17:27:07;7.10;73.10
33827;DHT22;20128;45.582;5.298;2023-01-24T17:29:33;7.10;73.10
33827;DHT22;20128;45.582;5.298;2023-01-24T17:31:59;7.10;73.10
33827;DHT22;20128;45.582;5.298;2023-01-24T17:34:24;7.10;73.20
33827;DHT22;20128;45.582;5.298;2023-01-24T17:36:51;7.10;73.40
33827;DHT22;20128;45.582;5.298;2023-01-24T17:39:17;7.10;73.40
33827;DHT22;20128;45.582;5.298;2023-01-24T17:41:42;7.10;73.40
33827;DHT22;20128;45.582;5.298;2023-01-24T17:44:09;7.10;73.50
33827;DHT22;20128;45.582;5.298;2023-01-24T17:46:35;7.10;73.30
33827;DHT22;20128;45.582;5.298;2023-01-24T17:49:01;7.10;73.40
33827;DHT22;20128;45.582;5.298;2023-01-24T17:51:26;7.10;73.60
33827;DHT22;20128;45.582;5.298;2023-01-24T17:53:52;7.00;73.60
33827;DHT22;20128;45.582;5.298;2023-01-24T17:56:18;7.10;73.80
33827;DHT22;20128;45.582;5.298;2023-01-24T17:58:44;7.10;73.90
33827;DHT22;20128;45.582;5.298;2023-01-24T18:01:10;7.10;73.80
33827;DHT22;20128;45.582;5.298;2023-01-24T18:03:37;7.10;73.90
33827;DHT22;20128;45.582;5.298;2023-01-24T18:06:05;7.10;74.00
33827;DHT22;20128;45.582;5.298;2023-01-24T18:08:31;7.10;73.90
33827;DHT22;20128;45.582;5.298;2023-01-24T18:10:57;7.10;74.00
33827;DHT22;20128;45.582;5.298;2023-01-24T18:13:23;7.10;74.50
33827;DHT22;20128;45.582;5.298;2023-01-24T18:16:00;7.10;73.90
33827;DHT22;20128;45.582;5.298;2023-01-24T18:18:26;7.10;74.00